FVWD weather

Wedza Airport
Wedza, Mashonaland East Province, Zimbabwe

Public forecast

Using degrees Celsius for public forecast. Weather courtesy of forecast.io.

Closest aviation weather report (METAR) to Wedza Airport

Closest report is Robert Gabriel Mugabe International Airport, 49.7 nm (92.1 km) NW. Retrieved 2020/04/07 15:00 UTC (2 hours ago):

FVRG 071500Z 06009KT CAVOK 26/13 Q1018 NOSIG

Closest aviation forecast (TAF) to Wedza Airport

Closest forecast is Robert Gabriel Mugabe International Airport, 49.7 nm (92.1 km) NW. Retrieved 2020/04/07 12:00 UTC (5 hours ago):

TAF FVRG 071000Z 0712/0818 26010KT CAVOK BECMG 0806/0808 03012KT 9999 SCT020 FM081000 /////KT CAVOK